createdAt,value
2022-08-26T00:01:54.388Z,15.85
2022-08-26T00:04:25.477Z,15.84
2022-08-26T00:06:53.473Z,15.86
2022-08-26T00:09:20.453Z,15.78
2022-08-26T00:11:47.346Z,15.84
2022-08-26T00:14:15.134Z,15.79
2022-08-26T00:16:47.165Z,15.71
2022-08-26T00:19:19.287Z,15.72
2022-08-26T00:21:48.550Z,15.53
2022-08-26T00:24:16.255Z,15.68
2022-08-26T00:26:43.383Z,15.77
2022-08-26T00:29:10.180Z,15.66
2022-08-26T00:31:37.395Z,15.47
2022-08-26T00:34:04.117Z,15.48
2022-08-26T00:36:31.244Z,15.35
2022-08-26T00:38:58.400Z,15.34
2022-08-26T00:41:25.362Z,15.27
2022-08-26T00:43:53.002Z,15.27
2022-08-26T00:46:28.962Z,15.32
2022-08-26T00:49:04.080Z,15.28
2022-08-26T00:51:53.441Z,15.25
2022-08-26T00:54:23.164Z,15.27
2022-08-26T00:57:02.545Z,15.33
2022-08-26T00:59:32.999Z,15.37
2022-08-26T01:02:02.910Z,15.26
2022-08-26T01:04:31.468Z,15.32
2022-08-26T01:06:59.275Z,15.16
2022-08-26T01:09:26.426Z,15.27
2022-08-26T01:11:56.555Z,15.28
2022-08-26T01:14:26.857Z,15.22
2022-08-26T01:16:53.625Z,15.20
2022-08-26T01:19:29.874Z,15.14
2022-08-26T01:22:00.228Z,15.20
2022-08-26T01:24:29.187Z,15.17
2022-08-26T01:27:02.312Z,15.03
2022-08-26T01:29:30.906Z,14.88
2022-08-26T01:31:58.216Z,14.85
2022-08-26T01:34:31.462Z,14.76
2022-08-26T01:37:13.773Z,14.74
2022-08-26T01:39:44.940Z,14.77
2022-08-26T01:42:14.675Z,14.78
2022-08-26T01:45:00.078Z,14.70
2022-08-26T01:47:31.036Z,14.78
2022-08-26T01:50:02.902Z,14.76
2022-08-26T01:52:33.673Z,14.72
2022-08-26T01:55:00.916Z,14.56
2022-08-26T01:57:28.793Z,14.55
2022-08-26T01:59:58.609Z,14.48
2022-08-26T02:02:25.911Z,14.66
2022-08-26T02:04:57.327Z,14.56
2022-08-26T02:07:26.686Z,14.54
2022-08-26T02:09:53.996Z,14.42
2022-08-26T02:12:21.737Z,14.41
2022-08-26T02:14:53.306Z,14.35
2022-08-26T02:17:25.167Z,14.50
2022-08-26T02:19:52.501Z,14.56
2022-08-26T02:22:24.661Z,14.32
2022-08-26T02:25:06.115Z,14.31
2022-08-26T02:27:35.567Z,14.37
2022-08-26T02:30:10.862Z,14.31
2022-08-26T02:32:37.849Z,14.34
2022-08-26T02:35:08.780Z,14.32
2022-08-26T02:37:36.251Z,14.31
2022-08-26T02:40:05.180Z,14.40
2022-08-26T02:42:32.373Z,14.37
2022-08-26T02:45:00.298Z,14.38
2022-08-26T02:47:28.986Z,14.40
2022-08-26T02:49:56.115Z,14.42
2022-08-26T02:52:22.822Z,14.44
2022-08-26T02:54:49.741Z,14.18
2022-08-26T03:00:15.264Z,13.92
2022-08-26T03:02:42.098Z,13.93
2022-08-26T03:05:27.117Z,14.05
2022-08-26T03:07:53.955Z,14.00
2022-08-26T03:10:22.341Z,13.94
2022-08-26T03:13:05.155Z,13.92
2022-08-26T03:15:48.386Z,13.96
2022-08-26T03:18:20.850Z,13.85
2022-08-26T03:20:47.802Z,13.89
2022-08-26T03:23:15.484Z,14.02
2022-08-26T03:25:42.297Z,14.02
2022-08-26T03:28:15.430Z,13.99
2022-08-26T03:30:46.188Z,13.89
2022-08-26T03:33:14.101Z,13.84
2022-08-26T03:38:25.903Z,13.82
2022-08-26T03:40:53.670Z,13.84
2022-08-26T03:43:38.212Z,13.79
2022-08-26T03:46:09.319Z,13.83
2022-08-26T03:48:36.115Z,13.59
2022-08-26T03:51:04.590Z,13.62
2022-08-26T03:53:31.385Z,13.57
2022-08-26T03:55:58.149Z,13.77
2022-08-26T03:58:25.393Z,13.65
2022-08-26T04:00:55.678Z,13.54
2022-08-26T04:03:41.744Z,13.59
2022-08-26T04:06:09.155Z,13.66
2022-08-26T04:08:36.397Z,13.52
2022-08-26T04:11:03.562Z,13.51
2022-08-26T04:13:30.486Z,13.53
2022-08-26T04:15:57.607Z,13.70
2022-08-26T04:18:24.365Z,13.78
2022-08-26T04:20:50.962Z,13.70
2022-08-26T04:23:17.653Z,13.82
2022-08-26T04:25:44.267Z,13.75
2022-08-26T04:28:11.033Z,13.81
2022-08-26T04:30:38.439Z,13.85
2022-08-26T04:33:12.599Z,13.86
2022-08-26T04:35:39.732Z,13.99
2022-08-26T04:38:10.884Z,14.09
2022-08-26T04:40:42.550Z,14.16
2022-08-26T04:43:14.170Z,14.20
2022-08-26T04:45:41.922Z,14.23
2022-08-26T04:48:11.029Z,14.22
2022-08-26T04:50:38.240Z,14.37
2022-08-26T04:53:09.810Z,14.44
2022-08-26T04:55:38.156Z,14.38
2022-08-26T04:58:10.236Z,14.17
2022-08-26T05:00:37.524Z,14.13
2022-08-26T05:03:04.265Z,14.13
2022-08-26T05:05:32.296Z,14.22
2022-08-26T05:08:00.536Z,14.33
2022-08-26T05:10:27.555Z,14.42
2022-08-26T05:12:54.698Z,14.60
2022-08-26T05:15:21.306Z,14.57
2022-08-26T05:17:49.375Z,14.46
2022-08-26T05:20:16.415Z,14.49
2022-08-26T05:22:44.342Z,14.54
2022-08-26T05:25:10.955Z,14.66
2022-08-26T05:27:37.776Z,14.91
2022-08-26T05:30:06.587Z,15.11
2022-08-26T05:32:33.167Z,15.22
2022-08-26T05:34:59.816Z,15.38
2022-08-26T05:37:27.314Z,15.49
2022-08-26T05:39:54.022Z,15.52
2022-08-26T05:42:20.796Z,15.42
2022-08-26T05:44:55.675Z,15.43
2022-08-26T05:47:22.996Z,15.65
2022-08-26T05:49:51.656Z,15.80
2022-08-26T05:52:19.162Z,15.84
2022-08-26T05:54:45.793Z,15.78
2022-08-26T05:57:14.736Z,15.95
2022-08-26T05:59:41.421Z,16.03
2022-08-26T06:02:08.603Z,16.13
2022-08-26T06:04:35.637Z,16.25
2022-08-26T06:07:03.288Z,16.27
2022-08-26T06:09:32.247Z,16.45
2022-08-26T06:12:01.954Z,16.68
2022-08-26T06:14:30.612Z,16.88
2022-08-26T06:16:57.584Z,17.06
2022-08-26T06:19:24.380Z,17.18
2022-08-26T06:21:54.715Z,17.25
2022-08-26T06:24:41.421Z,17.36
2022-08-26T06:27:16.945Z,17.45
2022-08-26T06:29:44.115Z,17.44
2022-08-26T06:32:11.127Z,17.53
2022-08-26T06:34:38.310Z,17.77
2022-08-26T06:37:06.479Z,17.78
2022-08-26T06:39:45.514Z,17.88
2022-08-26T06:42:12.702Z,17.95
2022-08-26T06:44:40.905Z,18.13
2022-08-26T06:47:07.883Z,18.23
2022-08-26T06:49:34.909Z,18.29
2022-08-26T06:52:01.599Z,18.38
2022-08-26T06:54:31.820Z,18.51
2022-08-26T06:56:59.193Z,18.53
2022-08-26T06:59:27.944Z,18.62
2022-08-26T07:01:55.170Z,18.72
2022-08-26T07:04:23.097Z,18.76
2022-08-26T07:06:52.838Z,18.84
2022-08-26T07:09:25.573Z,18.90
2022-08-26T07:11:53.558Z,19.12
2022-08-26T07:14:21.938Z,19.17
2022-08-26T07:16:52.109Z,19.31
2022-08-26T07:19:31.129Z,19.59
2022-08-26T07:22:03.950Z,19.78
2022-08-26T07:24:35.888Z,19.96
2022-08-26T07:27:05.859Z,20.06
2022-08-26T07:29:33.297Z,20.14
2022-08-26T07:32:00.132Z,20.23
2022-08-26T07:34:27.361Z,20.34
2022-08-26T07:36:55.347Z,20.26
2022-08-26T07:39:22.616Z,20.32
2022-08-26T07:41:49.781Z,20.45
2022-08-26T07:44:16.774Z,20.53
2022-08-26T07:46:44.096Z,20.75
2022-08-26T07:49:12.314Z,20.88
2022-08-26T07:51:39.811Z,20.96
2022-08-26T07:54:07.305Z,21.03
2022-08-26T07:56:34.517Z,21.20
2022-08-26T07:59:03.914Z,21.28
2022-08-26T08:01:40.934Z,21.34
2022-08-26T08:04:13.172Z,21.58
2022-08-26T08:06:41.789Z,21.57
2022-08-26T08:09:12.541Z,21.82
2022-08-26T08:11:41.518Z,21.90
2022-08-26T08:14:18.480Z,22.10
2022-08-26T08:16:50.991Z,22.06
2022-08-26T08:19:21.196Z,22.20
2022-08-26T08:21:51.409Z,22.18
2022-08-26T08:24:18.581Z,22.32
2022-08-26T08:26:47.622Z,22.46
2022-08-26T08:29:14.288Z,22.68
2022-08-26T08:31:58.496Z,22.76
2022-08-26T08:34:27.271Z,22.82
2022-08-26T08:36:54.623Z,22.73
2022-08-26T08:39:22.525Z,22.91
2022-08-26T08:42:04.328Z,23.12
2022-08-26T08:44:31.348Z,23.34
2022-08-26T08:47:24.709Z,23.23
2022-08-26T08:49:54.583Z,23.49
2022-08-26T08:52:37.355Z,23.39
2022-08-26T08:55:11.167Z,23.49
2022-08-26T08:58:02.810Z,23.67
2022-08-26T09:00:39.789Z,23.94
2022-08-26T09:03:33.812Z,23.83
2022-08-26T09:06:02.742Z,23.74
2022-08-26T09:08:39.060Z,23.70
2022-08-26T09:11:09.443Z,23.72
2022-08-26T09:13:39.708Z,23.79
2022-08-26T09:16:27.927Z,24.22
2022-08-26T09:19:13.182Z,24.58
2022-08-26T09:22:08.281Z,24.64
2022-08-26T09:24:42.081Z,24.49
2022-08-26T09:27:40.884Z,24.59
2022-08-26T09:30:11.460Z,24.78
2022-08-26T09:32:39.144Z,24.97
2022-08-26T09:35:11.769Z,25.09
2022-08-26T09:40:22.792Z,25.34
2022-08-26T09:43:23.097Z,25.56
2022-08-26T09:45:59.216Z,25.65
2022-08-26T09:48:36.626Z,25.61
2022-08-26T09:51:07.862Z,25.37
2022-08-26T09:53:49.676Z,25.52
2022-08-26T09:56:25.380Z,25.71
2022-08-26T09:58:53.156Z,25.76
2022-08-26T10:01:35.362Z,25.80
2022-08-26T10:04:13.419Z,25.88
2022-08-26T10:06:54.596Z,25.95
2022-08-26T10:09:23.217Z,25.93
2022-08-26T10:11:54.306Z,26.29
2022-08-26T10:14:39.392Z,26.15
2022-08-26T10:17:08.297Z,26.22
2022-08-26T10:19:51.625Z,26.35
2022-08-26T10:22:36.852Z,26.25
2022-08-26T10:25:07.000Z,26.53
2022-08-26T10:27:53.395Z,26.77
2022-08-26T10:30:23.517Z,26.81
2022-08-26T10:33:14.958Z,26.69
2022-08-26T10:35:56.656Z,26.57
2022-08-26T10:38:34.484Z,26.64
2022-08-26T10:41:22.456Z,26.66
2022-08-26T10:43:51.683Z,26.81
2022-08-26T10:46:27.415Z,27.14
2022-08-26T10:49:09.160Z,27.29
2022-08-26T10:51:46.280Z,26.91
2022-08-26T10:54:26.193Z,26.86
2022-08-26T10:56:57.470Z,26.98
2022-08-26T10:59:49.273Z,27.13
2022-08-26T11:02:37.387Z,27.22
2022-08-26T11:05:15.425Z,27.46
2022-08-26T11:07:51.480Z,27.22
2022-08-26T11:10:21.589Z,27.26
2022-08-26T11:13:00.871Z,27.37
2022-08-26T11:15:29.305Z,27.24
2022-08-26T11:18:01.959Z,27.43
2022-08-26T11:20:35.057Z,27.55
2022-08-26T11:23:35.020Z,27.57
2022-08-26T11:26:37.588Z,27.60
2022-08-26T11:29:57.198Z,27.57
2022-08-26T11:32:41.147Z,27.76
2022-08-26T11:35:21.879Z,27.75
2022-08-26T11:37:48.555Z,27.84
2022-08-26T11:40:20.425Z,28.08
2022-08-26T11:43:06.335Z,27.99
2022-08-26T11:45:37.862Z,28.07
2022-08-26T11:48:33.960Z,28.08
2022-08-26T11:51:16.015Z,28.02
2022-08-26T11:53:52.285Z,28.21
2022-08-26T11:56:27.017Z,28.31
2022-08-26T11:59:02.129Z,28.23
2022-08-26T12:01:45.475Z,28.34
2022-08-26T12:04:22.357Z,28.53
2022-08-26T12:06:51.703Z,28.50
2022-08-26T12:09:32.995Z,28.51
2022-08-26T12:12:22.064Z,28.73
2022-08-26T12:14:48.656Z,28.79
2022-08-26T12:17:26.664Z,28.69
2022-08-26T12:20:03.821Z,28.53
2022-08-26T12:22:34.901Z,28.46
2022-08-26T12:25:14.741Z,28.69
2022-08-26T12:27:53.071Z,28.80
2022-08-26T12:30:30.320Z,28.92
2022-08-26T12:33:22.972Z,28.97
2022-08-26T12:35:57.006Z,28.98
2022-08-26T12:38:27.130Z,28.94
2022-08-26T12:40:56.169Z,29.20
2022-08-26T12:43:44.253Z,29.44
2022-08-26T12:46:18.119Z,29.29
2022-08-26T12:49:05.309Z,28.96
2022-08-26T12:51:33.179Z,29.29
2022-08-26T12:54:00.515Z,29.42
2022-08-26T12:56:47.332Z,29.45
2022-08-26T12:59:25.363Z,29.74
2022-08-26T13:01:53.716Z,29.94
2022-08-26T13:05:00.582Z,30.46
2022-08-26T13:07:31.188Z,31.03
2022-08-26T13:10:00.044Z,30.77
2022-08-26T13:12:41.146Z,30.69
2022-08-26T13:15:11.318Z,30.76
2022-08-26T13:17:39.471Z,30.71
2022-08-26T13:20:10.659Z,30.98
2022-08-26T13:22:38.320Z,31.01
2022-08-26T13:25:05.535Z,31.12
2022-08-26T13:27:35.878Z,31.39
2022-08-26T13:30:04.647Z,31.38
2022-08-26T13:32:32.127Z,31.68
2022-08-26T13:34:59.093Z,31.69
2022-08-26T13:37:34.409Z,31.83
2022-08-26T13:40:05.254Z,31.92
2022-08-26T13:42:36.032Z,31.65
2022-08-26T13:45:04.011Z,31.54
2022-08-26T13:47:30.886Z,31.45
2022-08-26T13:49:58.084Z,31.96
2022-08-26T13:52:30.235Z,32.04
2022-08-26T13:55:03.709Z,32.01
2022-08-26T13:57:30.734Z,32.28
2022-08-26T14:00:00.622Z,32.14
2022-08-26T14:02:31.428Z,32.22
2022-08-26T14:05:07.390Z,32.36
2022-08-26T14:07:49.746Z,32.59
2022-08-26T14:13:11.608Z,32.76
2022-08-26T14:15:38.521Z,32.95
2022-08-26T14:20:51.107Z,33.17
2022-08-26T14:23:26.224Z,33.09
2022-08-26T14:25:56.480Z,33.16
2022-08-26T14:28:23.247Z,33.11
2022-08-26T14:30:56.127Z,33.16
2022-08-26T14:33:26.252Z,33.37
2022-08-26T14:35:53.023Z,33.56
2022-08-26T14:38:19.905Z,33.77
2022-08-26T14:40:46.690Z,33.59
2022-08-26T14:43:17.704Z,33.76
2022-08-26T14:45:45.233Z,33.64
2022-08-26T14:48:12.623Z,33.24
2022-08-26T14:50:39.369Z,33.77
2022-08-26T14:53:28.939Z,34.36
2022-08-26T14:55:55.625Z,34.35
2022-08-26T14:58:22.270Z,34.65
2022-08-26T15:00:48.902Z,34.85
2022-08-26T15:04:32.320Z,34.88
2022-08-26T15:07:00.470Z,35.35
2022-08-26T15:09:29.143Z,35.75
2022-08-26T15:11:56.498Z,35.98
2022-08-26T15:14:24.438Z,35.92
2022-08-26T15:16:54.611Z,35.66
2022-08-26T15:19:22.743Z,36.05
2022-08-26T15:21:50.036Z,36.00
2022-08-26T15:24:20.557Z,36.59
2022-08-26T15:26:48.789Z,36.37
2022-08-26T15:29:19.392Z,36.51
2022-08-26T15:31:47.644Z,36.85
2022-08-26T15:34:16.909Z,36.99
2022-08-26T15:36:51.296Z,37.27
2022-08-26T15:39:19.650Z,37.29
2022-08-26T15:41:47.560Z,37.60
2022-08-26T15:44:17.372Z,37.17
2022-08-26T15:46:44.980Z,37.19
2022-08-26T15:49:12.032Z,37.58
2022-08-26T15:51:48.200Z,37.75
2022-08-26T15:54:17.208Z,37.90
2022-08-26T15:56:45.186Z,37.75
2022-08-26T15:59:12.210Z,36.73
2022-08-26T16:01:39.657Z,36.24
2022-08-26T16:04:06.918Z,36.05
2022-08-26T16:06:36.723Z,35.63
2022-08-26T16:09:05.024Z,35.12
2022-08-26T16:11:32.000Z,35.29
2022-08-26T16:13:58.741Z,35.27
2022-08-26T16:16:26.561Z,34.95
2022-08-26T16:18:59.839Z,34.77
2022-08-26T16:21:28.705Z,34.00
2022-08-26T16:23:56.244Z,33.24
2022-08-26T16:26:26.620Z,33.36
2022-08-26T16:29:15.752Z,32.96
2022-08-26T16:31:42.844Z,31.79
2022-08-26T16:36:53.917Z,29.36
2022-08-26T16:40:14.835Z,28.56
2022-08-26T16:42:41.589Z,28.07
2022-08-26T16:45:08.876Z,27.87
2022-08-26T16:47:44.119Z,27.69
2022-08-26T16:50:18.555Z,27.46
2022-08-26T16:52:45.408Z,27.23
2022-08-26T16:55:15.360Z,26.91
2022-08-26T16:57:47.025Z,26.73
2022-08-26T17:00:31.000Z,26.53
2022-08-26T17:02:59.832Z,26.43
2022-08-26T17:05:27.934Z,26.12
2022-08-26T17:07:57.119Z,26.05
2022-08-26T17:10:25.198Z,25.92
2022-08-26T17:12:53.013Z,25.87
2022-08-26T17:15:20.538Z,25.81
2022-08-26T17:17:49.864Z,25.68
2022-08-26T17:20:23.389Z,25.53
2022-08-26T17:22:52.858Z,25.46
2022-08-26T17:25:22.055Z,25.36
2022-08-26T17:27:48.915Z,25.37
2022-08-26T17:30:16.633Z,25.21
2022-08-26T17:32:44.092Z,25.02
2022-08-26T17:35:13.009Z,24.93
2022-08-26T17:37:42.941Z,24.81
2022-08-26T17:40:12.991Z,24.59
2022-08-26T17:42:40.816Z,24.41
2022-08-26T17:45:08.870Z,24.33
2022-08-26T17:47:45.606Z,24.39
2022-08-26T17:50:17.030Z,24.35
2022-08-26T17:52:54.385Z,24.28
2022-08-26T17:55:21.422Z,24.19
2022-08-26T17:57:53.566Z,24.21
2022-08-26T18:00:23.742Z,24.19
2022-08-26T18:02:50.526Z,24.15
2022-08-26T18:05:18.235Z,24.08
2022-08-26T18:07:46.027Z,24.04
2022-08-26T18:10:15.766Z,24.00
2022-08-26T18:12:46.706Z,24.04
2022-08-26T18:15:19.118Z,24.15
2022-08-26T18:17:46.124Z,24.08
2022-08-26T18:20:19.081Z,23.99
2022-08-26T18:22:47.565Z,23.69
2022-08-26T18:25:15.671Z,23.57
2022-08-26T18:27:45.734Z,23.40
2022-08-26T18:30:20.048Z,23.54
2022-08-26T18:32:53.443Z,23.59
2022-08-26T18:35:21.661Z,23.52
2022-08-26T18:37:48.725Z,23.33
2022-08-26T18:40:16.610Z,23.19
2022-08-26T18:42:44.153Z,23.07
2022-08-26T18:45:16.121Z,23.06
2022-08-26T18:47:44.176Z,23.03
2022-08-26T18:50:11.272Z,22.85
2022-08-26T18:52:38.225Z,22.80
2022-08-26T18:55:07.177Z,22.68
2022-08-26T18:57:37.253Z,22.55
2022-08-26T19:00:06.239Z,22.05
2022-08-26T19:02:33.395Z,22.19
2022-08-26T19:05:00.486Z,22.17
2022-08-26T19:07:27.136Z,22.10
2022-08-26T19:09:54.234Z,21.82
2022-08-26T19:12:24.207Z,21.69
2022-08-26T19:14:53.774Z,21.90
2022-08-26T19:17:20.667Z,21.95
2022-08-26T19:19:49.855Z,21.87
2022-08-26T19:22:16.781Z,21.77
2022-08-26T19:24:43.595Z,21.81
2022-08-26T19:27:14.569Z,21.93
2022-08-26T19:29:42.239Z,21.80
2022-08-26T19:32:09.003Z,21.74
2022-08-26T19:34:36.648Z,21.86
2022-08-26T19:37:03.347Z,21.78
2022-08-26T19:39:30.059Z,21.59
2022-08-26T19:41:56.896Z,21.75
2022-08-26T19:44:42.628Z,21.74
2022-08-26T19:47:11.244Z,21.57
2022-08-26T19:49:38.605Z,21.71
2022-08-26T19:52:06.117Z,21.68
2022-08-26T19:54:33.502Z,21.72
2022-08-26T19:57:00.507Z,21.63
2022-08-26T19:59:27.350Z,21.65
2022-08-26T20:02:01.399Z,21.65
2022-08-26T20:04:30.581Z,21.47
2022-08-26T20:07:00.471Z,21.49
2022-08-26T20:09:28.698Z,21.57
2022-08-26T20:11:56.793Z,21.62
2022-08-26T20:14:27.625Z,21.64
2022-08-26T20:16:54.534Z,21.27
2022-08-26T20:19:43.057Z,21.33
2022-08-26T20:22:15.487Z,21.17
2022-08-26T20:24:42.412Z,20.98
2022-08-26T20:27:09.782Z,20.80
2022-08-26T20:29:40.813Z,20.81
2022-08-26T20:32:08.045Z,20.87
2022-08-26T20:34:36.273Z,20.91
2022-08-26T20:37:03.795Z,21.04
2022-08-26T20:39:30.554Z,21.08
2022-08-26T20:41:58.402Z,20.89
2022-08-26T20:44:26.011Z,20.68
2022-08-26T20:46:53.219Z,20.37
2022-08-26T20:49:20.061Z,20.25
2022-08-26T20:51:51.445Z,20.30
2022-08-26T20:54:22.122Z,20.40
2022-08-26T20:56:50.972Z,20.53
2022-08-26T20:59:18.210Z,20.51
2022-08-26T21:01:45.160Z,20.48
2022-08-26T21:04:15.821Z,20.42
2022-08-26T21:06:48.977Z,20.29
2022-08-26T21:09:21.722Z,20.33
2022-08-26T21:11:48.638Z,20.40
2022-08-26T21:14:16.996Z,20.40
2022-08-26T21:16:45.293Z,20.24
2022-08-26T21:19:15.165Z,20.00
2022-08-26T21:21:42.259Z,19.83
2022-08-26T21:24:09.409Z,19.80
2022-08-26T21:26:36.594Z,19.69
2022-08-26T21:29:04.047Z,19.65
2022-08-26T21:31:32.243Z,19.51
2022-08-26T21:33:59.830Z,19.58
2022-08-26T21:36:26.923Z,19.36
2022-08-26T21:38:58.724Z,19.44
2022-08-26T21:41:26.693Z,19.31
2022-08-26T21:43:58.039Z,19.40
2022-08-26T21:46:26.174Z,19.30
2022-08-26T21:49:01.909Z,19.21
2022-08-26T21:51:32.244Z,19.12
2022-08-26T21:54:00.700Z,19.04
2022-08-26T21:56:30.075Z,19.00
2022-08-26T21:59:00.462Z,18.83
2022-08-26T22:01:32.040Z,18.88
2022-08-26T22:03:59.185Z,18.78
2022-08-26T22:06:27.441Z,18.73
2022-08-26T22:08:55.392Z,18.43
2022-08-26T22:11:28.143Z,18.52
2022-08-26T22:13:56.858Z,18.38
2022-08-26T22:16:24.507Z,18.42
2022-08-26T22:18:51.378Z,18.43
2022-08-26T22:21:21.255Z,18.36
2022-08-26T22:23:48.027Z,18.25
2022-08-26T22:26:25.327Z,18.25
2022-08-26T22:28:58.531Z,18.26
2022-08-26T22:31:38.001Z,18.39
2022-08-26T22:34:11.168Z,18.39
2022-08-26T22:36:43.745Z,18.20
2022-08-26T22:39:12.879Z,18.08
2022-08-26T22:41:40.187Z,18.07
2022-08-26T22:44:07.608Z,18.04
2022-08-26T22:46:36.801Z,17.96
2022-08-26T22:49:04.904Z,18.03
2022-08-26T22:51:32.239Z,17.92
2022-08-26T22:53:59.196Z,17.85
2022-08-26T22:56:25.841Z,17.80
2022-08-26T22:58:52.756Z,17.79
2022-08-26T23:01:19.860Z,17.67
2022-08-26T23:03:46.756Z,17.57
2022-08-26T23:06:13.638Z,17.58
2022-08-26T23:08:41.898Z,17.56
2022-08-26T23:11:10.287Z,17.56
2022-08-26T23:13:37.645Z,17.45
2022-08-26T23:16:09.305Z,17.48
2022-08-26T23:18:36.700Z,17.49
2022-08-26T23:21:03.582Z,17.43
2022-08-26T23:23:31.195Z,17.36
2022-08-26T23:25:58.485Z,17.36
2022-08-26T23:28:26.555Z,17.27
2022-08-26T23:30:54.042Z,17.29
2022-08-26T23:33:21.218Z,17.29
2022-08-26T23:35:47.981Z,17.19
2022-08-26T23:38:16.179Z,17.12
2022-08-26T23:40:43.005Z,17.09
2022-08-26T23:43:11.625Z,16.92
2022-08-26T23:45:38.826Z,17.05
2022-08-26T23:48:06.696Z,17.13
2022-08-26T23:50:52.592Z,16.91
2022-08-26T23:53:22.022Z,16.91
2022-08-26T23:55:52.362Z,16.88
2022-08-26T23:58:21.157Z,16.80
